WXM80 ListenWXM80 Stop

You find our weather info also at:

UK Metoffice

WeatherCloud

Weather Underground

Northeastern Weather Network

AWEKAS

Citizen Weather Observer Program (CWOP)

HAMweather, WeatherForYou, PWS Weather


Weather Underground History page Text

Daily Summary for June 19, 2016 Units:  English    Metric   Both
« Previous Day
Next Day »
Daily Weekly Monthly Yearly Custom
  High: Low: Average:
Temperature: 82.1 °F 60.5 °F 69.6 °F
Dew Point: 69.3 °F 54.9 °F 59.8 °F
Humidity: 91 % 54 % 72 %
Wind Speed: 8.4 mph 0.0 mph 1.3 mph
Wind Gust: 16.1 mph - -
Wind:- - SE
Pressure: 30.29 in 30.23 in -
Precipitation: 0.00 in    
Historical Graphs
 
 
Tabular Data for June 19, 2016
Time Temperature Dew Point Pressure Wind Wind Speed Wind Gust Humidity Rainfall Rate (Hourly)
00:01 63.9 °F 55.4 °F 30.28 in Calm     74 % 0.00 in
00:06 63.8 °F 55.7 °F 30.28 in Calm     75 % 0.00 in
00:11 63.6 °F 55.5 °F 30.28 in Calm     75 % 0.00 in
00:16 63.4 °F 55.7 °F 30.28 in Calm     76 % 0.00 in
00:21 63.2 °F 55.9 °F 30.28 in Calm     77 % 0.00 in
00:26 63.1 °F 55.8 °F 30.28 in Calm     77 % 0.00 in
00:32 63.0 °F 55.7 °F 30.28 in South 0.3 mph 1.0 mph 77 % 0.00 in
00:37 62.8 °F 55.5 °F 30.28 in Calm     77 % 0.00 in
00:42 62.7 °F 55.4 °F 30.28 in Calm     77 % 0.00 in
00:47 62.5 °F 55.9 °F 30.28 in Calm     79 % 0.00 in
00:52 62.3 °F 55.7 °F 30.28 in Calm     79 % 0.00 in
00:57 62.2 °F 56.0 °F 30.28 in Calm     80 % 0.00 in
01:02 62.0 °F 55.8 °F 30.28 in Calm     80 % 0.00 in
01:07 61.9 °F 55.7 °F 30.28 in Calm     80 % 0.00 in
01:12 61.8 °F 55.9 °F 30.28 in Calm     81 % 0.00 in
01:17 61.6 °F 56.0 °F 30.28 in Calm     82 % 0.00 in
01:23 61.4 °F 55.5 °F 30.27 in Calm     81 % 0.00 in
01:28 61.3 °F 55.4 °F 30.27 in Calm   1.2 mph 81 % 0.00 in
01:33 61.2 °F 55.7 °F 30.27 in Calm     82 % 0.00 in
01:38 61.2 °F 56.0 °F 30.27 in Calm     83 % 0.00 in
01:43 61.2 °F 56.0 °F 30.27 in Calm     83 % 0.00 in
01:48 61.1 °F 56.2 °F 30.27 in Calm     84 % 0.00 in
01:53 61.1 °F 56.6 °F 30.28 in South 0.3 mph 2.0 mph 85 % 0.00 in
01:58 61.1 °F 56.6 °F 30.27 in Calm     85 % 0.00 in
02:03 61.2 °F 56.7 °F 30.27 in Calm     85 % 0.00 in
02:08 61.3 °F 56.8 °F 30.27 in Calm     85 % 0.00 in
02:14 61.3 °F 56.8 °F 30.27 in Calm     85 % 0.00 in
02:19 61.4 °F 56.8 °F 30.27 in Calm     85 % 0.00 in
02:24 61.4 °F 56.8 °F 30.27 in Calm     85 % 0.00 in
02:29 61.4 °F 56.8 °F 30.27 in Calm     85 % 0.00 in
02:34 61.4 °F 56.8 °F 30.28 in Calm     85 % 0.00 in
02:39 61.4 °F 56.8 °F 30.27 in Calm     85 % 0.00 in
02:44 61.5 °F 56.9 °F 30.27 in Calm     85 % 0.00 in
02:49 61.5 °F 56.9 °F 30.27 in Calm     85 % 0.00 in
02:54 61.5 °F 56.9 °F 30.27 in Calm     85 % 0.00 in
02:59 61.5 °F 56.9 °F 30.27 in Calm     85 % 0.00 in
03:05 61.5 °F 56.9 °F 30.27 in Calm     85 % 0.00 in
03:10 61.5 °F 56.9 °F 30.27 in Calm     85 % 0.00 in
03:15 61.5 °F 56.9 °F 30.27 in Calm   1.2 mph 85 % 0.00 in
03:20 61.5 °F 56.9 °F 30.27 in Calm     85 % 0.00 in
03:25 61.5 °F 56.9 °F 30.27 in Calm     85 % 0.00 in
03:30 61.6 °F 57.0 °F 30.27 in Calm     85 % 0.00 in
03:35 61.6 °F 57.4 °F 30.27 in Calm     86 % 0.00 in
03:40 61.7 °F 57.1 °F 30.27 in Calm   1.2 mph 85 % 0.00 in
03:45 61.7 °F 57.1 °F 30.27 in Calm     85 % 0.00 in
03:50 61.8 °F 57.2 °F 30.26 in Calm   1.2 mph 85 % 0.00 in
03:56 61.8 °F 57.2 °F 30.27 in Calm     85 % 0.00 in
04:01 61.8 °F 57.2 °F 30.27 in Calm     85 % 0.00 in
04:06 61.8 °F 56.9 °F 30.26 in Calm     84 % 0.00 in
04:11 61.8 °F 56.9 °F 30.26 in Calm     84 % 0.00 in
04:16 61.8 °F 56.6 °F 30.27 in Calm     83 % 0.00 in
04:21 61.8 °F 56.6 °F 30.27 in Calm     83 % 0.00 in
04:26 61.8 °F 56.6 °F 30.27 in Calm     83 % 0.00 in
04:36 61.8 °F 56.6 °F 30.26 in Calm     83 % 0.00 in
04:42 61.8 °F 56.9 °F 30.27 in Calm     84 % 0.00 in
04:47 61.7 °F 56.8 °F 30.27 in Calm     84 % 0.00 in
04:52 61.7 °F 57.1 °F 30.26 in Calm     85 % 0.00 in
04:57 61.5 °F 56.9 °F 30.26 in Calm     85 % 0.00 in
05:02 61.4 °F 56.8 °F 30.26 in SW 0.4 mph 1.2 mph 85 % 0.00 in
05:07 61.3 °F 56.8 °F 30.26 in Calm     85 % 0.00 in
05:12 61.1 °F 56.6 °F 30.27 in Calm     85 % 0.00 in
05:17 61.0 °F 56.8 °F 30.26 in Calm     86 % 0.00 in
05:22 60.9 °F 56.7 °F 30.27 in Calm     86 % 0.00 in
05:27 60.8 °F 56.6 °F 30.27 in Calm     86 % 0.00 in
05:33 60.7 °F 56.5 °F 30.27 in Calm     86 % 0.00 in
05:38 60.6 °F 56.4 °F 30.27 in Calm     86 % 0.00 in
05:43 60.5 °F 56.3 °F 30.27 in Calm     86 % 0.00 in
05:48 60.5 °F 56.6 °F 30.27 in Calm     87 % 0.00 in
05:53 60.5 °F 56.6 °F 30.28 in Calm     87 % 0.00 in
05:58 60.5 °F 56.6 °F 30.28 in Calm     87 % 0.00 in
06:03 60.5 °F 56.6 °F 30.28 in Calm     87 % 0.00 in
06:08 60.6 °F 57.0 °F 30.27 in Calm     88 % 0.00 in
06:13 60.6 °F 57.0 °F 30.28 in Calm     88 % 0.00 in
06:18 60.8 °F 57.5 °F 30.27 in Calm     89 % 0.00 in
06:24 60.9 °F 57.6 °F 30.27 in Calm     89 % 0.00 in
06:29 61.2 °F 58.2 °F 30.28 in Calm     90 % 0.00 in
06:34 61.6 °F 58.9 °F 30.27 in Calm     91 % 0.00 in
06:39 62.1 °F 59.4 °F 30.27 in Calm     91 % 0.00 in
06:49 63.0 °F 60.3 °F 30.27 in Calm     91 % 0.00 in
06:54 63.7 °F 61.0 °F 30.27 in Calm     91 % 0.00 in
06:59 64.4 °F 61.1 °F 30.27 in Calm     89 % 0.00 in
07:04 65.3 °F 62.0 °F 30.28 in Calm     89 % 0.00 in
07:09 65.8 °F 61.5 °F 30.28 in SSW 0.2 mph 1.2 mph 86 % 0.00 in
07:15 66.4 °F 61.1 °F 30.28 in Calm     83 % 0.00 in
07:20 66.8 °F 61.1 °F 30.28 in SSW 0.9 mph 2.3 mph 82 % 0.00 in
07:25 67.2 °F 61.5 °F 30.28 in Calm     82 % 0.00 in
07:30 67.7 °F 61.7 °F 30.28 in Calm   1.2 mph 81 % 0.00 in
07:35 68.2 °F 62.5 °F 30.28 in Calm   1.0 mph 82 % 0.00 in
07:40 68.6 °F 62.9 °F 30.28 in SSW 0.1 mph 1.2 mph 82 % 0.00 in
07:45 69.2 °F 63.1 °F 30.29 in SSW 0.1 mph 2.3 mph 81 % 0.00 in
07:50 69.3 °F 62.5 °F 30.29 in SSW 0.3 mph 1.2 mph 79 % 0.00 in
07:55 69.5 °F 63.1 °F 30.29 in Calm     80 % 0.00 in
08:00 69.6 °F 63.2 °F 30.29 in SSW 0.1 mph 1.2 mph 80 % 0.00 in
08:06 69.8 °F 63.0 °F 30.29 in Calm     79 % 0.00 in
08:11 69.9 °F 62.7 °F 30.29 in SSW 0.3 mph   78 % 0.00 in
08:16 70.0 °F 62.8 °F 30.29 in North 2.5 mph 4.0 mph 78 % 0.00 in
08:21 70.1 °F 62.9 °F 30.29 in North 1.2 mph 3.5 mph 78 % 0.00 in
08:26 70.2 °F 63.0 °F 30.29 in North 2.2 mph 3.5 mph 78 % 0.00 in
08:31 70.2 °F 63.0 °F 30.29 in North 2.1 mph 3.5 mph 78 % 0.00 in
08:36 70.3 °F 62.7 °F 30.29 in North 2.5 mph 4.0 mph 77 % 0.00 in
08:41 70.4 °F 62.5 °F 30.28 in NNE 2.1 mph 3.0 mph 76 % 0.00 in
08:46 70.5 °F 61.8 °F 30.29 in NNE 1.9 mph 3.5 mph 74 % 0.00 in
08:51 70.6 °F 62.7 °F 30.29 in NNE 1.1 mph 2.3 mph 76 % 0.00 in
08:57 70.6 °F 61.9 °F 30.29 in ENE 1.1 mph 3.0 mph 74 % 0.00 in
09:02 70.7 °F 62.4 °F 30.29 in NNE 2.1 mph 3.5 mph 75 % 0.00 in
09:07 70.7 °F 61.2 °F 30.29 in North 0.8 mph 3.5 mph 72 % 0.00 in
09:12 70.7 °F 61.6 °F 30.29 in North 0.8 mph 3.5 mph 73 % 0.00 in
09:17 70.7 °F 60.8 °F 30.29 in NE 2.1 mph 3.5 mph 71 % 0.00 in
09:22 70.8 °F 60.9 °F 30.29 in NNE 2.2 mph 3.5 mph 71 % 0.00 in
09:27 70.8 °F 60.5 °F 30.29 in NNE 2.0 mph 3.5 mph 70 % 0.00 in
09:32 70.9 °F 60.6 °F 30.29 in NNE 0.1 mph 2.3 mph 70 % 0.00 in
09:37 71.0 °F 60.7 °F 30.29 in ENE 2.3 mph 4.0 mph 70 % 0.00 in
09:48 71.5 °F 60.8 °F 30.29 in North 2.9 mph 3.5 mph 69 % 0.00 in
09:53 72.1 °F 61.4 °F 30.29 in North 1.5 mph 3.5 mph 69 % 0.00 in
09:58 73.0 °F 62.2 °F 30.29 in North 1.7 mph 3.5 mph 69 % 0.00 in
10:03 73.8 °F 61.7 °F 30.28 in North 4.0 mph 5.0 mph 66 % 0.00 in
10:08 74.5 °F 61.5 °F 30.29 in North 3.1 mph 4.6 mph 64 % 0.00 in
10:13 75.2 °F 61.3 °F 30.29 in NE 1.3 mph 3.5 mph 62 % 0.00 in
10:18 75.6 °F 60.7 °F 30.29 in ENE 2.4 mph 4.6 mph 60 % 0.00 in
10:23 76.2 °F 64.4 °F 30.29 in NE 3.8 mph 5.0 mph 67 % 0.00 in
10:28 76.9 °F 65.5 °F 30.29 in NE 2.2 mph 3.5 mph 68 % 0.00 in
10:33 77.6 °F 66.2 °F 30.29 in NNE 3.3 mph 5.0 mph 68 % 0.00 in
10:39 78.0 °F 66.6 °F 30.29 in NNE 1.6 mph 2.3 mph 68 % 0.00 in
10:44 78.0 °F 64.4 °F 30.29 in ENE 2.0 mph 3.5 mph 63 % 0.00 in
10:49 78.1 °F 65.8 °F 30.28 in NNE 2.6 mph 4.6 mph 66 % 0.00 in
10:59 78.7 °F 66.4 °F 30.28 in North 1.9 mph 3.5 mph 66 % 0.00 in
11:04 79.0 °F 66.7 °F 30.28 in NE 2.4 mph 4.0 mph 66 % 0.00 in
11:09 78.9 °F 66.1 °F 30.28 in NE 4.5 mph 6.0 mph 65 % 0.00 in
11:14 78.3 °F 65.6 °F 30.29 in NE 1.9 mph 4.0 mph 65 % 0.00 in
11:19 78.1 °F 66.2 °F 30.29 in ENE 2.4 mph 6.9 mph 67 % 0.00 in
11:24 77.6 °F 66.6 °F 30.29 in East 2.4 mph 6.9 mph 69 % 0.00 in
11:30 77.5 °F 67.4 °F 30.29 in NE 1.1 mph 3.5 mph 71 % 0.00 in
11:35 77.9 °F 66.9 °F 30.29 in ENE 1.0 mph 2.3 mph 69 % 0.00 in
11:40 78.2 °F 68.0 °F 30.29 in ENE 0.8 mph 8.1 mph 71 % 0.00 in
11:45 78.7 °F 65.5 °F 30.29 in ENE 1.6 mph 3.5 mph 64 % 0.00 in
11:50 78.4 °F 66.5 °F 30.29 in ENE 2.9 mph 4.6 mph 67 % 0.00 in
11:55 78.3 °F 65.6 °F 30.29 in ENE 2.8 mph 5.8 mph 65 % 0.00 in
12:00 77.7 °F 65.0 °F 30.28 in ENE 3.2 mph 6.9 mph 65 % 0.00 in
12:05 77.1 °F 65.7 °F 30.28 in NE 2.0 mph 4.6 mph 68 % 0.00 in
12:10 77.4 °F 65.6 °F 30.28 in NE 1.2 mph 2.3 mph 67 % 0.00 in
12:15 78.0 °F 66.6 °F 30.28 in NE 1.4 mph 3.5 mph 68 % 0.00 in
12:21 78.8 °F 66.0 °F 30.27 in ENE 3.2 mph 4.6 mph 65 % 0.00 in
12:26 78.9 °F 65.7 °F 30.27 in NE 3.5 mph 5.8 mph 64 % 0.00 in
12:31 78.6 °F 65.4 °F 30.27 in NE 3.1 mph 5.8 mph 64 % 0.00 in
12:36 78.3 °F 66.0 °F 30.27 in North 1.7 mph 3.5 mph 66 % 0.00 in
12:41 78.4 °F 66.5 °F 30.27 in ENE 3.8 mph 7.0 mph 67 % 0.00 in
12:46 78.6 °F 65.4 °F 30.26 in ENE 1.0 mph 4.6 mph 64 % 0.00 in
12:51 78.6 °F 66.7 °F 30.26 in ENE 2.5 mph 4.6 mph 67 % 0.00 in
12:56 78.0 °F 66.6 °F 30.26 in NE 1.0 mph 4.6 mph 68 % 0.00 in
13:01 78.1 °F 66.7 °F 30.26 in ENE 1.8 mph 4.6 mph 68 % 0.00 in
13:06 78.2 °F 67.2 °F 30.26 in ENE 2.2 mph 5.8 mph 69 % 0.00 in
13:12 78.7 °F 67.7 °F 30.26 in NE 3.2 mph 5.0 mph 69 % 0.00 in
13:17 79.0 °F 68.0 °F 30.26 in ENE 1.4 mph 7.0 mph 69 % 0.00 in
13:22 79.5 °F 69.3 °F 30.25 in ENE 0.1 mph 1.2 mph 71 % 0.00 in
13:27 79.9 °F 67.5 °F 30.25 in Calm   1.0 mph 66 % 0.00 in
13:32 80.0 °F 64.9 °F 30.25 in SSE 1.8 mph 5.8 mph 60 % 0.00 in
13:37 81.0 °F 67.7 °F 30.25 in SSE 0.9 mph 3.5 mph 64 % 0.00 in
13:42 81.2 °F 64.5 °F 30.25 in SE 0.2 mph 1.2 mph 57 % 0.00 in
13:47 81.4 °F 66.2 °F 30.25 in SE 1.6 mph 5.8 mph 60 % 0.00 in
13:52 82.1 °F 66.8 °F 30.26 in SE 0.6 mph 3.0 mph 60 % 0.00 in
13:57 81.9 °F 63.6 °F 30.25 in South 4.4 mph 4.4 mph 54 % 0.00 in
14:03 81.8 °F 64.1 °F 30.25 in SE 4.5 mph 6.0 mph 55 % 0.00 in
14:08 81.9 °F 64.1 °F 30.25 in SE 1.4 mph 6.0 mph 55 % 0.00 in
14:13 81.7 °F 66.0 °F 30.25 in ESE 2.0 mph 6.9 mph 59 % 0.00 in
14:18 82.1 °F 64.8 °F 30.25 in SSE 6.6 mph 12.7 mph 56 % 0.00 in
14:23 80.8 °F 64.1 °F 30.25 in SE 5.2 mph 11.0 mph 57 % 0.00 in
14:28 80.3 °F 64.2 °F 30.25 in South 5.4 mph 10.4 mph 58 % 0.00 in
14:33 79.9 °F 64.3 °F 30.25 in SE 6.8 mph 11.5 mph 59 % 0.00 in
14:38 80.2 °F 65.1 °F 30.25 in SSE 0.6 mph 5.8 mph 60 % 0.00 in
14:43 80.4 °F 63.3 °F 30.25 in SSE 5.3 mph 13.0 mph 56 % 0.00 in
14:48 80.1 °F 64.0 °F 30.25 in SSE 0.5 mph 4.6 mph 58 % 0.00 in
14:54 80.5 °F 64.4 °F 30.24 in SE 6.3 mph 9.0 mph 58 % 0.00 in
14:59 80.2 °F 63.1 °F 30.24 in SSE 1.8 mph 5.8 mph 56 % 0.00 in
15:04 80.3 °F 63.7 °F 30.24 in ESE 3.0 mph 6.9 mph 57 % 0.00 in
15:09 80.6 °F 64.0 °F 30.24 in SSW 2.2 mph 3.5 mph 57 % 0.00 in
15:14 80.0 °F 62.4 °F 30.24 in SSE 6.2 mph 10.4 mph 55 % 0.00 in
15:19 78.9 °F 62.9 °F 30.24 in SSE 0.2 mph 2.3 mph 58 % 0.00 in
15:24 79.1 °F 63.5 °F 30.24 in ESE 3.4 mph 8.1 mph 59 % 0.00 in
15:29 79.2 °F 62.1 °F 30.24 in SSE 1.0 mph 6.9 mph 56 % 0.00 in
15:39 78.8 °F 62.8 °F 30.24 in SE 7.6 mph 8.1 mph 58 % 0.00 in
15:45 78.6 °F 63.1 °F 30.24 in SSE 3.6 mph 8.1 mph 59 % 0.00 in
15:50 78.9 °F 62.9 °F 30.24 in SE 3.4 mph 6.9 mph 58 % 0.00 in
15:55 78.4 °F 61.9 °F 30.24 in SSE 2.5 mph 8.1 mph 57 % 0.00 in
16:00 78.6 °F 62.6 °F 30.24 in SE 3.2 mph 5.8 mph 58 % 0.00 in
16:05 78.8 °F 63.3 °F 30.24 in South 2.9 mph 6.9 mph 59 % 0.00 in
16:10 78.3 °F 60.3 °F 30.24 in South 5.9 mph 11.5 mph 54 % 0.00 in
16:15 77.1 °F 60.2 °F 30.24 in SSE 3.9 mph 9.0 mph 56 % 0.00 in
16:20 76.5 °F 60.1 °F 30.24 in SE 2.2 mph 4.6 mph 57 % 0.00 in
16:31 76.6 °F 60.7 °F 30.24 in ESE 2.2 mph 9.2 mph 58 % 0.00 in
16:36 76.9 °F 61.0 °F 30.24 in SE 1.6 mph 3.5 mph 58 % 0.00 in
16:41 77.0 °F 59.1 °F 30.24 in SSE 2.3 mph 3.5 mph 54 % 0.00 in
16:46 76.8 °F 59.4 °F 30.24 in SSE 4.7 mph 9.2 mph 55 % 0.00 in
16:51 76.6 °F 59.7 °F 30.24 in SSE 5.4 mph 11.5 mph 56 % 0.00 in
16:56 76.7 °F 59.8 °F 30.24 in East 3.1 mph 11.5 mph 56 % 0.00 in
17:01 76.3 °F 58.9 °F 30.24 in SSE 5.0 mph 13.8 mph 55 % 0.00 in
17:06 75.9 °F 58.6 °F 30.24 in ESE 7.0 mph 11.5 mph 55 % 0.00 in
17:16 75.5 °F 59.2 °F 30.23 in SE 1.4 mph 10.4 mph 57 % 0.00 in
17:22 75.2 °F 58.4 °F 30.23 in SE 2.6 mph 11.5 mph 56 % 0.00 in
17:27 74.7 °F 57.5 °F 30.23 in SE 5.7 mph 11.5 mph 55 % 0.00 in
17:32 74.3 °F 57.6 °F 30.23 in SE 3.1 mph 10.4 mph 56 % 0.00 in
17:37 74.0 °F 57.3 °F 30.23 in SE 5.4 mph 15.0 mph 56 % 0.00 in
17:42 74.0 °F 57.3 °F 30.23 in SE 8.4 mph 13.8 mph 56 % 0.00 in
17:47 73.9 °F 57.2 °F 30.23 in SSE 2.6 mph 11.5 mph 56 % 0.00 in
17:52 73.9 °F 57.2 °F 30.23 in SE 2.4 mph 5.8 mph 56 % 0.00 in
17:57 73.8 °F 56.6 °F 30.23 in SE 6.4 mph 16.1 mph 55 % 0.00 in
18:02 73.7 °F 56.5 °F 30.23 in SSE 7.2 mph 15.0 mph 55 % 0.00 in
18:07 73.5 °F 56.3 °F 30.23 in South 1.1 mph 6.9 mph 55 % 0.00 in
18:13 73.4 °F 56.2 °F 30.23 in SSE 4.1 mph 15.0 mph 55 % 0.00 in
18:18 73.2 °F 56.1 °F 30.23 in SE 3.5 mph 11.5 mph 55 % 0.00 in
18:23 73.0 °F 55.4 °F 30.23 in SSE 3.8 mph 9.2 mph 54 % 0.00 in
18:28 72.7 °F 55.1 °F 30.23 in SSE 3.5 mph 9.2 mph 54 % 0.00 in
18:33 72.5 °F 54.9 °F 30.24 in SE 5.0 mph 12.7 mph 54 % 0.00 in
18:38 72.3 °F 55.7 °F 30.24 in SE 6.1 mph 11.5 mph 56 % 0.00 in
18:43 72.1 °F 56.0 °F 30.24 in SSE 1.3 mph 4.0 mph 57 % 0.00 in
18:48 72.0 °F 55.9 °F 30.24 in South 2.7 mph 8.1 mph 57 % 0.00 in
18:53 71.7 °F 55.7 °F 30.23 in SE 3.2 mph 8.1 mph 57 % 0.00 in
18:58 71.6 °F 56.0 °F 30.24 in South 2.9 mph 3.5 mph 58 % 0.00 in
19:04 71.4 °F 55.9 °F 30.23 in SSE 3.0 mph 5.8 mph 58 % 0.00 in
19:09 71.2 °F 56.1 °F 30.23 in SE 1.7 mph 9.2 mph 59 % 0.00 in
19:14 71.0 °F 55.9 °F 30.23 in SE 2.2 mph 4.6 mph 59 % 0.00 in
19:19 70.9 °F 56.3 °F 30.23 in South 0.1 mph 2.3 mph 60 % 0.00 in
19:24 70.8 °F 56.2 °F 30.23 in SE 0.1 mph 2.3 mph 60 % 0.00 in
19:29 70.7 °F 56.1 °F 30.23 in SSE 0.6 mph 3.5 mph 60 % 0.00 in
19:34 70.6 °F 56.5 °F 30.24 in SE 0.1 mph 1.2 mph 61 % 0.00 in
19:39 70.5 °F 56.4 °F 30.24 in SSE 1.8 mph 4.6 mph 61 % 0.00 in
19:44 70.3 °F 56.7 °F 30.24 in SSE 0.3 mph 1.2 mph 62 % 0.00 in
19:49 70.2 °F 57.0 °F 30.24 in Calm     63 % 0.00 in
19:55 70.0 °F 57.3 °F 30.24 in SSE 1.1 mph 2.0 mph 64 % 0.00 in
20:00 69.8 °F 57.1 °F 30.24 in SE 1.4 mph 3.0 mph 64 % 0.00 in
20:05 69.6 °F 56.9 °F 30.24 in Calm   1.2 mph 64 % 0.00 in
20:10 69.5 °F 57.6 °F 30.24 in SE 1.0 mph 2.3 mph 66 % 0.00 in
20:15 69.2 °F 57.4 °F 30.24 in SSE 1.6 mph 3.5 mph 66 % 0.00 in
20:20 68.9 °F 57.5 °F 30.24 in SE 0.2 mph 3.5 mph 67 % 0.00 in
20:25 68.8 °F 57.4 °F 30.24 in WSW 0.1 mph 1.2 mph 67 % 0.00 in
20:30 68.5 °F 57.5 °F 30.24 in SE 0.5 mph 3.5 mph 68 % 0.00 in
20:35 68.3 °F 57.7 °F 30.24 in SE 0.4 mph 2.3 mph 69 % 0.00 in
20:40 68.2 °F 58.0 °F 30.24 in Calm     70 % 0.00 in
20:46 68.1 °F 57.9 °F 30.24 in Calm     70 % 0.00 in
20:51 67.9 °F 57.8 °F 30.25 in SE 0.7 mph 3.5 mph 70 % 0.00 in
20:56 67.7 °F 58.0 °F 30.25 in Calm     71 % 0.00 in
21:01 67.6 °F 57.9 °F 30.25 in Calm     71 % 0.00 in
21:06 67.4 °F 57.7 °F 30.25 in Calm     71 % 0.00 in
21:11 67.2 °F 57.9 °F 30.25 in Calm     72 % 0.00 in
21:16 67.1 °F 57.8 °F 30.25 in Calm   1.2 mph 72 % 0.00 in
21:21 66.9 °F 58.0 °F 30.26 in Calm     73 % 0.00 in
21:26 66.8 °F 57.9 °F 30.25 in Calm     73 % 0.00 in
21:31 66.7 °F 57.8 °F 30.25 in Calm     73 % 0.00 in
21:37 66.5 °F 58.0 °F 30.25 in SSE 0.4 mph   74 % 0.00 in
21:42 66.4 °F 57.9 °F 30.25 in Calm     74 % 0.00 in
21:47 66.2 °F 58.0 °F 30.25 in Calm     75 % 0.00 in
21:57 65.8 °F 58.0 °F 30.26 in Calm     76 % 0.00 in
22:02 65.6 °F 58.2 °F 30.26 in Calm     77 % 0.00 in
22:07 65.5 °F 58.1 °F 30.26 in Calm     77 % 0.00 in
22:12 65.3 °F 57.9 °F 30.25 in Calm     77 % 0.00 in
22:17 65.2 °F 58.2 °F 30.25 in South 0.3 mph 1.2 mph 78 % 0.00 in
22:22 65.0 °F 58.0 °F 30.25 in Calm     78 % 0.00 in
22:28 64.9 °F 58.2 °F 30.25 in Calm     79 % 0.00 in
22:33 64.7 °F 58.4 °F 30.25 in Calm     80 % 0.00 in
22:38 64.6 °F 58.3 °F 30.25 in Calm     80 % 0.00 in
22:43 64.5 °F 58.5 °F 30.25 in Calm     81 % 0.00 in
22:48 64.3 °F 58.3 °F 30.24 in Calm     81 % 0.00 in
22:53 64.2 °F 58.2 °F 30.25 in Calm     81 % 0.00 in
22:58 64.0 °F 58.1 °F 30.25 in Calm     81 % 0.00 in
23:03 63.9 °F 58.3 °F 30.25 in Calm     82 % 0.00 in
23:08 63.8 °F 58.2 °F 30.25 in Calm     82 % 0.00 in
23:13 63.7 °F 58.1 °F 30.25 in Calm     82 % 0.00 in
23:19 63.6 °F 58.3 °F 30.25 in Calm     83 % 0.00 in
23:24 63.4 °F 58.1 °F 30.25 in Calm     83 % 0.00 in
23:29 63.3 °F 58.0 °F 30.25 in Calm     83 % 0.00 in
23:34 63.2 °F 58.3 °F 30.25 in Calm     84 % 0.00 in
23:39 63.1 °F 58.2 °F 30.25 in Calm     84 % 0.00 in
23:44 62.9 °F 58.3 °F 30.25 in Calm     85 % 0.00 in
23:49 62.8 °F 58.2 °F 30.24 in Calm     85 % 0.00 in
23:54 62.7 °F 58.1 °F 30.24 in Calm     85 % 0.00 in
23:59 62.6 °F 58.0 °F 30.24 in Calm     85 % 0.00 in
Crab Meadow Weather
Compliments of Weather Underground - 3 mb

Script developed by  Jim McMurry - jmcmurry@mwt.net Adapted for the template by  Wim van der Kuil - Leuven-Template.eu

Weather Terms: Severe Thunderstorm Warning - A severe thunderstorm is indicated by Doppler radar or sighted by skywarn spotters. A severe thunderstorm contains large damaging hail, 1 inch diameter or larger, and/or damaging winds of around 60 mph or greater. These warnings are issued on a county by county basis by the local Weather Forecast Office in Upton.